sensor_id;sensor_type;location;lat;lon;timestamp;pressure;altitude;pressure_sealevel;temperature;humidity
18137;BME280;9194;42.632;23.298;2023-09-12T00:04:56;92799.50;;;13.55;100.00
18137;BME280;9194;42.632;23.298;2023-09-12T00:09:57;92798.00;;;13.60;100.00
18137;BME280;9194;42.632;23.298;2023-09-12T00:14:58;92801.66;;;13.58;100.00
18137;BME280;9194;42.632;23.298;2023-09-12T00:20:00;92803.56;;;13.63;100.00
18137;BME280;9194;42.632;23.298;2023-09-12T00:25:01;92797.44;;;13.57;100.00
18137;BME280;9194;42.632;23.298;2023-09-12T00:30:03;92805.28;;;13.57;100.00
18137;BME280;9194;42.632;23.298;2023-09-12T00:35:05;92809.31;;;13.48;100.00
18137;BME280;9194;42.632;23.298;2023-09-12T00:40:07;92812.94;;;13.47;100.00
18137;BME280;9194;42.632;23.298;2023-09-12T00:45:08;92812.38;;;13.45;100.00
18137;BME280;9194;42.632;23.298;2023-09-12T00:50:10;92806.59;;;13.43;100.00
18137;BME280;9194;42.632;23.298;2023-09-12T00:55:12;92807.19;;;13.34;100.00
18137;BME280;9194;42.632;23.298;2023-09-12T01:00:14;92816.75;;;13.28;100.00
18137;BME280;9194;42.632;23.298;2023-09-12T01:05:16;92813.03;;;13.24;100.00
18137;BME280;9194;42.632;23.298;2023-09-12T01:10:17;92812.47;;;13.22;100.00
18137;BME280;9194;42.632;23.298;2023-09-12T01:15:19;92822.91;;;13.22;100.00
18137;BME280;9194;42.632;23.298;2023-09-12T01:20:30;92816.66;;;13.23;100.00
18137;BME280;9194;42.632;23.298;2023-09-12T01:25:46;92817.69;;;13.10;100.00
18137;BME280;9194;42.632;23.298;2023-09-12T01:30:54;92822.28;;;13.15;100.00
18137;BME280;9194;42.632;23.298;2023-09-12T01:35:56;92830.75;;;13.10;100.00
18137;BME280;9194;42.632;23.298;2023-09-12T01:40:57;92828.94;;;13.11;100.00
18137;BME280;9194;42.632;23.298;2023-09-12T01:46:00;92827.94;;;13.12;100.00
18137;BME280;9194;42.632;23.298;2023-09-12T01:51:01;92829.84;;;13.05;100.00
18137;BME280;9194;42.632;23.298;2023-09-12T01:56:03;92827.94;;;13.00;100.00
18137;BME280;9194;42.632;23.298;2023-09-12T02:01:04;92840.13;;;12.95;100.00
18137;BME280;9194;42.632;23.298;2023-09-12T02:06:05;92839.44;;;12.88;100.00
18137;BME280;9194;42.632;23.298;2023-09-12T02:11:06;92839.81;;;12.80;100.00
18137;BME280;9194;42.632;23.298;2023-09-12T02:16:08;92836.28;;;12.86;100.00
18137;BME280;9194;42.632;23.298;2023-09-12T02:21:09;92834.47;;;12.86;100.00
18137;BME280;9194;42.632;23.298;2023-09-12T02:26:10;92830.38;;;12.79;100.00
18137;BME280;9194;42.632;23.298;2023-09-12T02:31:12;92840.59;;;12.68;100.00
18137;BME280;9194;42.632;23.298;2023-09-12T02:36:13;92836.41;;;12.67;100.00
18137;BME280;9194;42.632;23.298;2023-09-12T02:41:14;92835.38;;;12.68;100.00
18137;BME280;9194;42.632;23.298;2023-09-12T02:46:15;92840.84;;;12.55;100.00
18137;BME280;9194;42.632;23.298;2023-09-12T02:51:17;92838.44;;;12.54;100.00
18137;BME280;9194;42.632;23.298;2023-09-12T02:56:18;92840.25;;;12.53;100.00
18137;BME280;9194;42.632;23.298;2023-09-12T03:01:20;92844.69;;;12.53;100.00
18137;BME280;9194;42.632;23.298;2023-09-12T03:06:21;92837.75;;;12.47;100.00
18137;BME280;9194;42.632;23.298;2023-09-12T03:11:26;92834.59;;;12.56;100.00
18137;BME280;9194;42.632;23.298;2023-09-12T03:16:28;92833.44;;;12.52;100.00
18137;BME280;9194;42.632;23.298;2023-09-12T03:21:30;92834.91;;;12.48;100.00
18137;BME280;9194;42.632;23.298;2023-09-12T03:26:33;92842.53;;;12.50;100.00
18137;BME280;9194;42.632;23.298;2023-09-12T03:31:35;92841.16;;;12.35;100.00
18137;BME280;9194;42.632;23.298;2023-09-12T03:36:36;92845.72;;;12.40;100.00
18137;BME280;9194;42.632;23.298;2023-09-12T03:41:38;92842.75;;;12.37;100.00
18137;BME280;9194;42.632;23.298;2023-09-12T03:46:39;92848.66;;;12.32;100.00
18137;BME280;9194;42.632;23.298;2023-09-12T03:51:40;92848.56;;;12.39;100.00
18137;BME280;9194;42.632;23.298;2023-09-12T03:56:42;92845.25;;;12.31;100.00
18137;BME280;9194;42.632;23.298;2023-09-12T04:01:43;92853.66;;;12.33;100.00
18137;BME280;9194;42.632;23.298;2023-09-12T04:06:44;92847.63;;;12.33;100.00
18137;BME280;9194;42.632;23.298;2023-09-12T04:11:45;92851.38;;;12.37;100.00
18137;BME280;9194;42.632;23.298;2023-09-12T04:16:47;92845.81;;;12.33;100.00
18137;BME280;9194;42.632;23.298;2023-09-12T04:21:48;92852.50;;;12.29;100.00
18137;BME280;9194;42.632;23.298;2023-09-12T04:26:49;92848.88;;;12.42;100.00
18137;BME280;9194;42.632;23.298;2023-09-12T04:31:50;92854.22;;;12.47;100.00
18137;BME280;9194;42.632;23.298;2023-09-12T04:36:53;92853.41;;;12.58;100.00
18137;BME280;9194;42.632;23.298;2023-09-12T04:41:55;92858.88;;;12.68;100.00
18137;BME280;9194;42.632;23.298;2023-09-12T04:46:57;92855.09;;;12.88;100.00
18137;BME280;9194;42.632;23.298;2023-09-12T04:51:58;92859.78;;;12.97;100.00
18137;BME280;9194;42.632;23.298;2023-09-12T04:57:00;92857.47;;;13.01;100.00
18137;BME280;9194;42.632;23.298;2023-09-12T05:02:01;92857.47;;;13.24;100.00
18137;BME280;9194;42.632;23.298;2023-09-12T05:07:03;92859.44;;;13.45;100.00
18137;BME280;9194;42.632;23.298;2023-09-12T05:12:05;92853.91;;;13.70;100.00
18137;BME280;9194;42.632;23.298;2023-09-12T05:17:06;92858.25;;;13.93;100.00
18137;BME280;9194;42.632;23.298;2023-09-12T05:22:07;92867.97;;;14.09;100.00
18137;BME280;9194;42.632;23.298;2023-09-12T05:27:10;92864.06;;;14.28;100.00
18137;BME280;9194;42.632;23.298;2023-09-12T05:32:11;92865.31;;;14.54;100.00
18137;BME280;9194;42.632;23.298;2023-09-12T05:37:12;92864.44;;;14.65;100.00
18137;BME280;9194;42.632;23.298;2023-09-12T05:42:13;92868.13;;;14.86;99.60
18137;BME280;9194;42.632;23.298;2023-09-12T05:47:16;92874.56;;;14.95;98.94
18137;BME280;9194;42.632;23.298;2023-09-12T05:52:17;92873.66;;;15.06;99.34
18137;BME280;9194;42.632;23.298;2023-09-12T05:57:18;92866.66;;;15.12;99.64
18137;BME280;9194;42.632;23.298;2023-09-12T06:02:20;92868.22;;;15.30;96.57
18137;BME280;9194;42.632;23.298;2023-09-12T06:07:21;92868.63;;;15.43;92.87
18137;BME280;9194;42.632;23.298;2023-09-12T06:12:22;92862.38;;;15.66;92.46
18137;BME280;9194;42.632;23.298;2023-09-12T06:17:24;92872.00;;;15.82;93.68
18137;BME280;9194;42.632;23.298;2023-09-12T06:22:25;92879.28;;;16.02;91.28
18137;BME280;9194;42.632;23.298;2023-09-12T06:27:27;92887.59;;;16.21;92.20
18137;BME280;9194;42.632;23.298;2023-09-12T06:32:28;92895.34;;;16.32;92.92
18137;BME280;9194;42.632;23.298;2023-09-12T06:37:29;92892.47;;;16.34;93.30
18137;BME280;9194;42.632;23.298;2023-09-12T06:42:30;92898.50;;;16.61;90.49
18137;BME280;9194;42.632;23.298;2023-09-12T06:47:32;92889.41;;;16.74;90.88
18137;BME280;9194;42.632;23.298;2023-09-12T06:52:33;92903.56;;;17.05;89.79
18137;BME280;9194;42.632;23.298;2023-09-12T06:57:34;92900.41;;;17.08;86.89
18137;BME280;9194;42.632;23.298;2023-09-12T07:02:35;92898.75;;;17.34;86.06
18137;BME280;9194;42.632;23.298;2023-09-12T07:07:36;92901.31;;;17.71;83.53
18137;BME280;9194;42.632;23.298;2023-09-12T07:12:37;92895.78;;;17.72;84.98
18137;BME280;9194;42.632;23.298;2023-09-12T07:17:39;92901.41;;;17.96;83.49
18137;BME280;9194;42.632;23.298;2023-09-12T07:22:40;92912.00;;;18.16;80.15
18137;BME280;9194;42.632;23.298;2023-09-12T07:27:41;92909.66;;;18.30;76.32
18137;BME280;9194;42.632;23.298;2023-09-12T07:32:42;92909.41;;;18.31;75.08
18137;BME280;9194;42.632;23.298;2023-09-12T07:37:43;92908.66;;;18.51;74.71
18137;BME280;9194;42.632;23.298;2023-09-12T07:42:44;92909.75;;;18.85;75.18
18137;BME280;9194;42.632;23.298;2023-09-12T07:47:46;92907.63;;;19.08;70.87
18137;BME280;9194;42.632;23.298;2023-09-12T07:52:47;92902.06;;;19.19;70.49
18137;BME280;9194;42.632;23.298;2023-09-12T07:57:48;92906.00;;;19.32;67.89
18137;BME280;9194;42.632;23.298;2023-09-12T08:02:49;92904.94;;;19.48;66.92
18137;BME280;9194;42.632;23.298;2023-09-12T08:07:51;92906.22;;;19.61;65.79
18137;BME280;9194;42.632;23.298;2023-09-12T08:12:52;92906.16;;;19.76;65.43
18137;BME280;9194;42.632;23.298;2023-09-12T08:17:54;92906.00;;;20.12;67.50
18137;BME280;9194;42.632;23.298;2023-09-12T08:22:55;92903.28;;;20.27;62.91
18137;BME280;9194;42.632;23.298;2023-09-12T08:27:56;92915.13;;;20.39;60.20
18137;BME280;9194;42.632;23.298;2023-09-12T08:32:58;92907.66;;;20.52;60.93
18137;BME280;9194;42.632;23.298;2023-09-12T08:37:59;92903.69;;;20.54;60.03
18137;BME280;9194;42.632;23.298;2023-09-12T08:43:00;92898.28;;;20.69;58.28
18137;BME280;9194;42.632;23.298;2023-09-12T08:48:03;92891.31;;;20.83;56.83
18137;BME280;9194;42.632;23.298;2023-09-12T08:53:05;92886.13;;;21.02;57.73
18137;BME280;9194;42.632;23.298;2023-09-12T08:58:06;92887.88;;;21.12;55.39
18137;BME280;9194;42.632;23.298;2023-09-12T09:03:08;92898.13;;;21.23;54.29
18137;BME280;9194;42.632;23.298;2023-09-12T09:08:10;92899.94;;;21.28;53.98
18137;BME280;9194;42.632;23.298;2023-09-12T09:13:12;92895.28;;;21.67;55.54
18137;BME280;9194;42.632;23.298;2023-09-12T09:18:14;92890.22;;;21.71;53.02
18137;BME280;9194;42.632;23.298;2023-09-12T09:23:15;92887.78;;;21.75;53.71
18137;BME280;9194;42.632;23.298;2023-09-12T09:28:17;92885.69;;;22.19;53.74
18137;BME280;9194;42.632;23.298;2023-09-12T09:33:19;92873.41;;;22.04;54.01
18137;BME280;9194;42.632;23.298;2023-09-12T09:38:20;92876.94;;;22.00;54.32
18137;BME280;9194;42.632;23.298;2023-09-12T09:43:22;92874.28;;;22.37;53.87
18137;BME280;9194;42.632;23.298;2023-09-12T09:48:24;92863.59;;;22.42;53.93
18137;BME280;9194;42.632;23.298;2023-09-12T09:53:29;92866.94;;;22.53;54.71
18137;BME280;9194;42.632;23.298;2023-09-12T09:58:30;92865.69;;;22.83;52.91
18137;BME280;9194;42.632;23.298;2023-09-12T10:03:32;92862.44;;;22.86;51.55
18137;BME280;9194;42.632;23.298;2023-09-12T10:08:38;92851.56;;;23.01;52.37
18137;BME280;9194;42.632;23.298;2023-09-12T10:13:49;92849.63;;;23.07;52.25
18137;BME280;9194;42.632;23.298;2023-09-12T10:19:13;92842.13;;;23.41;52.13
18137;BME280;9194;42.632;23.298;2023-09-12T10:24:16;92836.09;;;23.35;51.68
18137;BME280;9194;42.632;23.298;2023-09-12T10:29:17;92836.25;;;23.58;52.09
18137;BME280;9194;42.632;23.298;2023-09-12T10:34:20;92838.59;;;23.73;51.73
18137;BME280;9194;42.632;23.298;2023-09-12T10:39:22;92832.00;;;23.84;50.08
18137;BME280;9194;42.632;23.298;2023-09-12T10:44:25;92821.25;;;23.89;50.07
18137;BME280;9194;42.632;23.298;2023-09-12T10:49:27;92824.72;;;23.76;49.13
18137;BME280;9194;42.632;23.298;2023-09-12T10:54:39;92814.50;;;23.56;49.28
18137;BME280;9194;42.632;23.298;2023-09-12T11:05:02;92803.13;;;24.05;50.68
18137;BME280;9194;42.632;23.298;2023-09-12T11:15:23;92795.06;;;24.46;49.34
18137;BME280;9194;42.632;23.298;2023-09-12T11:20:25;92802.25;;;24.45;47.77
18137;BME280;9194;42.632;23.298;2023-09-12T11:25:26;92794.28;;;24.32;47.50
18137;BME280;9194;42.632;23.298;2023-09-12T11:30:27;92796.06;;;24.59;47.47
18137;BME280;9194;42.632;23.298;2023-09-12T11:35:37;92790.31;;;24.43;45.74
18137;BME280;9194;42.632;23.298;2023-09-12T11:45:42;92779.50;;;24.39;46.17
18137;BME280;9194;42.632;23.298;2023-09-12T11:50:51;92767.06;;;24.35;48.09
18137;BME280;9194;42.632;23.298;2023-09-12T11:55:55;92772.47;;;24.43;45.86
18137;BME280;9194;42.632;23.298;2023-09-12T12:00:58;92768.16;;;24.78;47.24
18137;BME280;9194;42.632;23.298;2023-09-12T12:06:00;92765.06;;;24.85;45.50
18137;BME280;9194;42.632;23.298;2023-09-12T12:11:01;92762.59;;;24.88;45.00
18137;BME280;9194;42.632;23.298;2023-09-12T12:16:14;92763.59;;;24.92;45.03
18137;BME280;9194;42.632;23.298;2023-09-12T12:21:15;92757.78;;;24.99;45.39
18137;BME280;9194;42.632;23.298;2023-09-12T12:26:16;92754.25;;;25.04;46.17
18137;BME280;9194;42.632;23.298;2023-09-12T12:31:18;92759.22;;;24.97;45.89
18137;BME280;9194;42.632;23.298;2023-09-12T12:36:20;92750.28;;;25.01;46.23
18137;BME280;9194;42.632;23.298;2023-09-12T12:41:26;92752.38;;;25.13;47.15
18137;BME280;9194;42.632;23.298;2023-09-12T12:46:28;92743.97;;;25.28;46.30
18137;BME280;9194;42.632;23.298;2023-09-12T12:51:30;92747.41;;;25.20;46.05
18137;BME280;9194;42.632;23.298;2023-09-12T12:56:31;92743.91;;;25.11;45.07
18137;BME280;9194;42.632;23.298;2023-09-12T13:01:36;92736.97;;;24.92;45.29
18137;BME280;9194;42.632;23.298;2023-09-12T13:06:38;92744.63;;;24.72;48.10
18137;BME280;9194;42.632;23.298;2023-09-12T13:11:40;92735.59;;;24.50;46.07
18137;BME280;9194;42.632;23.298;2023-09-12T13:16:42;92742.47;;;24.51;48.47
18137;BME280;9194;42.632;23.298;2023-09-12T13:21:43;92731.47;;;24.44;48.41
18137;BME280;9194;42.632;23.298;2023-09-12T13:26:44;92730.31;;;24.37;47.55
18137;BME280;9194;42.632;23.298;2023-09-12T13:31:45;92721.00;;;24.26;48.71
18137;BME280;9194;42.632;23.298;2023-09-12T13:36:46;92721.00;;;24.26;47.95
18137;BME280;9194;42.632;23.298;2023-09-12T13:41:48;92726.50;;;24.29;47.49
18137;BME280;9194;42.632;23.298;2023-09-12T13:46:49;92723.16;;;24.24;50.62
18137;BME280;9194;42.632;23.298;2023-09-12T13:51:50;92721.94;;;24.07;50.11
18137;BME280;9194;42.632;23.298;2023-09-12T13:56:51;92723.75;;;23.98;50.62
18137;BME280;9194;42.632;23.298;2023-09-12T14:01:53;92716.75;;;23.89;50.48
18137;BME280;9194;42.632;23.298;2023-09-12T14:06:54;92715.91;;;23.80;53.98
18137;BME280;9194;42.632;23.298;2023-09-12T14:11:56;92718.00;;;23.69;53.42
18137;BME280;9194;42.632;23.298;2023-09-12T14:16:57;92715.56;;;23.59;56.20
18137;BME280;9194;42.632;23.298;2023-09-12T14:21:58;92719.69;;;23.38;57.37
18137;BME280;9194;42.632;23.298;2023-09-12T14:26:59;92719.31;;;23.30;57.99
18137;BME280;9194;42.632;23.298;2023-09-12T14:32:01;92716.84;;;23.07;59.92
18137;BME280;9194;42.632;23.298;2023-09-12T14:37:02;92716.34;;;22.91;61.85
18137;BME280;9194;42.632;23.298;2023-09-12T14:42:03;92718.16;;;22.63;65.19
18137;BME280;9194;42.632;23.298;2023-09-12T14:47:09;92711.31;;;22.43;66.98
18137;BME280;9194;42.632;23.298;2023-09-12T14:52:10;92712.56;;;22.00;71.38
18137;BME280;9194;42.632;23.298;2023-09-12T14:57:12;92713.78;;;21.70;72.57
18137;BME280;9194;42.632;23.298;2023-09-12T15:02:13;92711.56;;;21.58;73.79
18137;BME280;9194;42.632;23.298;2023-09-12T15:07:14;92716.19;;;21.48;72.33
18137;BME280;9194;42.632;23.298;2023-09-12T15:12:15;92716.31;;;21.38;72.56
18137;BME280;9194;42.632;23.298;2023-09-12T15:17:19;92722.09;;;21.21;74.81
18137;BME280;9194;42.632;23.298;2023-09-12T15:22:21;92725.44;;;21.03;77.70
18137;BME280;9194;42.632;23.298;2023-09-12T15:27:22;92720.94;;;20.79;78.56
18137;BME280;9194;42.632;23.298;2023-09-12T15:32:23;92719.03;;;20.56;79.59
18137;BME280;9194;42.632;23.298;2023-09-12T15:37:24;92720.00;;;20.41;79.73
18137;BME280;9194;42.632;23.298;2023-09-12T15:42:25;92709.56;;;20.21;81.11
18137;BME280;9194;42.632;23.298;2023-09-12T15:47:26;92724.75;;;20.05;81.57
18137;BME280;9194;42.632;23.298;2023-09-12T15:52:29;92723.81;;;19.91;81.26
18137;BME280;9194;42.632;23.298;2023-09-12T15:57:30;92724.44;;;19.78;81.92
18137;BME280;9194;42.632;23.298;2023-09-12T16:02:32;92723.97;;;19.66;81.83
18137;BME280;9194;42.632;23.298;2023-09-12T16:07:33;92720.59;;;19.55;82.59
18137;BME280;9194;42.632;23.298;2023-09-12T16:12:35;92728.06;;;19.38;83.20
18137;BME280;9194;42.632;23.298;2023-09-12T16:17:36;92722.56;;;19.24;83.28
18137;BME280;9194;42.632;23.298;2023-09-12T16:22:42;92721.56;;;19.10;83.44
18137;BME280;9194;42.632;23.298;2023-09-12T16:27:43;92727.44;;;18.97;83.01
18137;BME280;9194;42.632;23.298;2023-09-12T16:32:45;92726.97;;;18.85;83.58
18137;BME280;9194;42.632;23.298;2023-09-12T16:37:46;92725.41;;;18.74;83.88
18137;BME280;9194;42.632;23.298;2023-09-12T16:42:48;92730.19;;;18.57;84.78
18137;BME280;9194;42.632;23.298;2023-09-12T16:47:49;92730.97;;;18.42;85.07
18137;BME280;9194;42.632;23.298;2023-09-12T16:52:50;92729.66;;;18.29;85.33
18137;BME280;9194;42.632;23.298;2023-09-12T16:57:52;92727.81;;;18.20;84.96
18137;BME280;9194;42.632;23.298;2023-09-12T17:02:53;92736.78;;;18.09;84.68
18137;BME280;9194;42.632;23.298;2023-09-12T17:07:54;92740.47;;;18.02;85.54
18137;BME280;9194;42.632;23.298;2023-09-12T17:12:55;92738.63;;;17.93;86.42
18137;BME280;9194;42.632;23.298;2023-09-12T17:17:56;92743.91;;;17.88;86.20
18137;BME280;9194;42.632;23.298;2023-09-12T17:22:58;92755.44;;;17.77;85.88
18137;BME280;9194;42.632;23.298;2023-09-12T17:27:59;92748.63;;;17.76;85.04
18137;BME280;9194;42.632;23.298;2023-09-12T17:33:00;92750.19;;;17.77;82.52
18137;BME280;9194;42.632;23.298;2023-09-12T17:38:02;92757.56;;;17.80;83.24
18137;BME280;9194;42.632;23.298;2023-09-12T17:43:03;92762.59;;;17.81;82.99
18137;BME280;9194;42.632;23.298;2023-09-12T17:48:04;92758.63;;;17.94;82.33
18137;BME280;9194;42.632;23.298;2023-09-12T17:53:06;92762.88;;;18.05;80.66
18137;BME280;9194;42.632;23.298;2023-09-12T17:58:07;92760.25;;;18.05;79.99
18137;BME280;9194;42.632;23.298;2023-09-12T18:03:08;92763.94;;;17.99;80.64
18137;BME280;9194;42.632;23.298;2023-09-12T18:08:09;92774.47;;;17.99;80.89
18137;BME280;9194;42.632;23.298;2023-09-12T18:13:11;92784.22;;;17.98;81.15
18137;BME280;9194;42.632;23.298;2023-09-12T18:18:12;92778.13;;;17.88;82.50
18137;BME280;9194;42.632;23.298;2023-09-12T18:23:13;92778.66;;;17.90;82.51
18137;BME280;9194;42.632;23.298;2023-09-12T18:28:39;92775.75;;;17.81;83.54
18137;BME280;9194;42.632;23.298;2023-09-12T18:33:42;92778.88;;;17.68;84.04
18137;BME280;9194;42.632;23.298;2023-09-12T18:38:44;92787.22;;;17.55;84.57
18137;BME280;9194;42.632;23.298;2023-09-12T18:43:45;92786.94;;;17.41;86.17
18137;BME280;9194;42.632;23.298;2023-09-12T18:48:46;92787.97;;;17.35;84.02
18137;BME280;9194;42.632;23.298;2023-09-12T18:53:47;92795.31;;;17.28;84.04
18137;BME280;9194;42.632;23.298;2023-09-12T18:58:48;92805.16;;;17.01;84.41
18137;BME280;9194;42.632;23.298;2023-09-12T19:03:50;92806.97;;;16.95;85.44
18137;BME280;9194;42.632;23.298;2023-09-12T19:08:51;92806.16;;;16.90;86.07
18137;BME280;9194;42.632;23.298;2023-09-12T19:13:53;92816.38;;;16.81;87.85
18137;BME280;9194;42.632;23.298;2023-09-12T19:18:54;92822.63;;;16.70;88.95
18137;BME280;9194;42.632;23.298;2023-09-12T19:23:55;92822.78;;;16.58;90.26
18137;BME280;9194;42.632;23.298;2023-09-12T19:29:00;92819.34;;;16.58;88.74
18137;BME280;9194;42.632;23.298;2023-09-12T19:34:02;92824.53;;;16.48;90.29
18137;BME280;9194;42.632;23.298;2023-09-12T19:39:04;92826.34;;;16.42;89.95
18137;BME280;9194;42.632;23.298;2023-09-12T19:44:05;92826.78;;;16.34;91.29
18137;BME280;9194;42.632;23.298;2023-09-12T19:49:07;92831.69;;;16.25;90.54
18137;BME280;9194;42.632;23.298;2023-09-12T19:54:09;92830.84;;;16.20;90.68
18137;BME280;9194;42.632;23.298;2023-09-12T19:59:11;92837.22;;;16.24;90.78
18137;BME280;9194;42.632;23.298;2023-09-12T20:04:12;92837.41;;;16.17;92.01
18137;BME280;9194;42.632;23.298;2023-09-12T20:09:13;92837.34;;;16.07;92.08
18137;BME280;9194;42.632;23.298;2023-09-12T20:14:15;92838.91;;;16.08;92.83
18137;BME280;9194;42.632;23.298;2023-09-12T20:19:16;92836.22;;;16.03;93.93
18137;BME280;9194;42.632;23.298;2023-09-12T20:24:17;92840.13;;;15.95;94.87
18137;BME280;9194;42.632;23.298;2023-09-12T20:29:18;92849.03;;;15.94;93.59
18137;BME280;9194;42.632;23.298;2023-09-12T20:34:20;92846.09;;;15.91;93.89
18137;BME280;9194;42.632;23.298;2023-09-12T20:39:24;92851.09;;;15.92;92.53
18137;BME280;9194;42.632;23.298;2023-09-12T20:44:26;92863.13;;;15.88;92.45
18137;BME280;9194;42.632;23.298;2023-09-12T20:49:28;92856.78;;;15.84;92.93
18137;BME280;9194;42.632;23.298;2023-09-12T20:54:31;92866.50;;;15.84;91.66
18137;BME280;9194;42.632;23.298;2023-09-12T20:59:32;92864.38;;;15.81;91.02
18137;BME280;9194;42.632;23.298;2023-09-12T21:04:34;92869.00;;;15.74;91.23
18137;BME280;9194;42.632;23.298;2023-09-12T21:09:35;92873.16;;;15.70;92.17
18137;BME280;9194;42.632;23.298;2023-09-12T21:14:36;92870.78;;;15.68;92.90
18137;BME280;9194;42.632;23.298;2023-09-12T21:19:37;92874.34;;;15.57;94.47
18137;BME280;9194;42.632;23.298;2023-09-12T21:24:38;92871.66;;;15.52;94.23
18137;BME280;9194;42.632;23.298;2023-09-12T21:29:40;92870.81;;;15.51;92.23
18137;BME280;9194;42.632;23.298;2023-09-12T21:34:43;92876.31;;;15.50;93.34
18137;BME280;9194;42.632;23.298;2023-09-12T21:39:44;92870.25;;;15.49;91.62
18137;BME280;9194;42.632;23.298;2023-09-12T21:44:45;92878.13;;;15.49;90.73
18137;BME280;9194;42.632;23.298;2023-09-12T21:49:47;92877.91;;;15.51;92.56
18137;BME280;9194;42.632;23.298;2023-09-12T21:54:48;92881.19;;;15.41;93.56
18137;BME280;9194;42.632;23.298;2023-09-12T21:59:50;92891.47;;;15.43;92.15
18137;BME280;9194;42.632;23.298;2023-09-12T22:04:52;92887.25;;;15.42;91.04
18137;BME280;9194;42.632;23.298;2023-09-12T22:09:53;92880.66;;;15.39;92.94
18137;BME280;9194;42.632;23.298;2023-09-12T22:14:54;92881.38;;;15.35;93.62
18137;BME280;9194;42.632;23.298;2023-09-12T22:19:55;92884.19;;;15.28;95.18
18137;BME280;9194;42.632;23.298;2023-09-12T22:24:56;92876.81;;;15.25;95.39
18137;BME280;9194;42.632;23.298;2023-09-12T22:29:58;92886.44;;;15.19;95.09
18137;BME280;9194;42.632;23.298;2023-09-12T22:34:59;92873.00;;;15.16;93.97
18137;BME280;9194;42.632;23.298;2023-09-12T22:40:00;92885.09;;;15.17;92.23
18137;BME280;9194;42.632;23.298;2023-09-12T22:45:01;92891.34;;;15.16;92.82
18137;BME280;9194;42.632;23.298;2023-09-12T22:50:06;92895.75;;;15.10;92.98
18137;BME280;9194;42.632;23.298;2023-09-12T22:55:08;92903.25;;;15.02;93.75
18137;BME280;9194;42.632;23.298;2023-09-12T23:00:09;92894.97;;;14.93;94.33
18137;BME280;9194;42.632;23.298;2023-09-12T23:05:11;92893.38;;;14.92;95.22
18137;BME280;9194;42.632;23.298;2023-09-12T23:10:12;92889.59;;;14.83;96.67
18137;BME280;9194;42.632;23.298;2023-09-12T23:15:13;92884.81;;;14.80;96.96
18137;BME280;9194;42.632;23.298;2023-09-12T23:20:14;92883.84;;;14.86;96.06
18137;BME280;9194;42.632;23.298;2023-09-12T23:25:16;92883.00;;;14.80;95.94
18137;BME280;9194;42.632;23.298;2023-09-12T23:30:17;92885.31;;;14.77;96.44
18137;BME280;9194;42.632;23.298;2023-09-12T23:35:19;92890.78;;;14.75;95.57
18137;BME280;9194;42.632;23.298;2023-09-12T23:40:20;92890.56;;;14.77;94.22
18137;BME280;9194;42.632;23.298;2023-09-12T23:45:22;92894.44;;;14.74;95.49
18137;BME280;9194;42.632;23.298;2023-09-12T23:50:23;92889.44;;;14.73;95.84
18137;BME280;9194;42.632;23.298;2023-09-12T23:55:24;92888.31;;;14.69;96.38
